• Join FlightAware (Why Join?)
  • Login
  • US Flag 
09:43AM EDT


 

Airport Tracker/Info


-or-


 

Live Flight TrackerFlight Track Log ✈ N567GJ ✈ 09-Jun-2013 ✈ 05C - KEVV

Flight Track Log - Related Links

Times and Time Zones

All times are in EDT time to prevent confusion due to time zone crossing. See the N567GJ flight status page for this flight to view local times or setup timezone preferences in your user account.

Time Position Orientation Groundspeed Altitude Reporting Facility
EDT Latitude Longitude Course Direction KTS MPH feet Rate Location/Type
12:10PM 41.3819 -87.4225 181° South 148 170 4,300  Level Chicago Center
12:11PM 41.3328 -87.4233 181° South 166 191 5,200 1,260 Climbing Chicago Center
12:12PM 41.2764 -87.4261 182° South 171 197 7,000 1,380 Climbing Chicago Center
12:13PM 41.2328 -87.4264 180° South 161 185 8,100 1,080 Climbing Chicago Center
12:14PM 41.1889 -87.4281 182° South 159 183 9,300 1,200 Climbing Chicago Center
12:15PM 41.1436 -87.4294 181° South 162 186 10,600 1,200 Climbing Chicago Center
12:16PM 41.1033 -87.4317 182° South 153 176 11,800 960 Climbing Chicago Center
12:17PM 41.0606 -87.4322 181° South 152 175 12,600 720 Climbing Chicago Center
12:18PM 41.0039 -87.4350 182° South 166 191 13,400 720 Climbing Chicago Center
12:19PM 40.9528 -87.4361 181° South 180 207 14,100 720 Climbing Chicago Center
12:21PM 40.9050 -87.4358 180° South 175 201 15,000 840 Climbing Chicago Center
12:22PM 40.8569 -87.4378 182° South 174 200 15,900 480 Climbing Chicago Center
12:23PM 40.8100 -87.4383 181° South 170 196 16,100 60 Climbing Chicago Center
12:24PM 40.7564 -87.4419 183° South 187 215 16,100  Level Chicago Center
12:25PM 40.6914 -87.4453 182° South 197 227 16,100  Level Chicago Center
12:26PM 40.6353 -87.4464 181° South 200 230 16,100 -60 Level Chicago Center
12:27PM 40.5792 -87.4483 182° South 202 232 16,000 -60 Descending Chicago Center
12:28PM 40.5242 -87.4503 182° South 201 231 16,000  Level Chicago Center
12:29PM 40.4692 -87.4519 181° South 200 230 16,000 -60 Level Chicago Center
12:30PM 40.4022 -87.4544 182° South 200 230 15,900  Descending Chicago Center
12:31PM 40.3450 -87.4561 181° South 206 237 16,000  Climbing Chicago Center
12:32PM 40.2911 -87.4561 180° South 200 230 16,000  Level Chicago Center
12:33PM 40.2350 -87.4597 183° South 201 231 16,100 -60 Climbing Chicago Center
12:34PM 40.1794 -87.4597 180° South 202 232 15,900 -120 Descending Chicago Center
12:35PM 40.1206 -87.4622 182° South 209 241 15,900 60 Level Chicago Center
12:35PM 40.0975 -87.4631 182° South 203 234 16,000 60 Climbing Indianapolis Center
12:36PM 40.0411 -87.4642 181° South 203 234 16,000  Level Indianapolis Center
12:37PM 39.9844 -87.4656 181° South 205 236 16,000  Level Indianapolis Center
12:38PM 39.9283 -87.4675 182° South 204 235 16,000  Level Indianapolis Center
12:39PM 39.8603 -87.4708 182° South 204 235 16,000  Level Indianapolis Center
12:40PM 39.8047 -87.4714 180° South 202 232 16,000  Level Indianapolis Center
12:41PM 39.7492 -87.4733 182° South 201 231 16,000  Level Indianapolis Center
12:42PM 39.6906 -87.4753 181° South 204 235 16,000  Level Indianapolis Center
12:44PM 39.6342 -87.4769 181° South 205 236 16,000  Level Indianapolis Center
12:45PM 39.5767 -87.4789 181° South 206 237 16,000  Level Indianapolis Center
12:46PM 39.5083 -87.4814 182° South 205 236 16,000  Level Indianapolis Center
12:47PM 39.4511 -87.4839 182° South 206 237 16,000  Level Indianapolis Center
12:48PM 39.3950 -87.4844 180° South 204 235 16,000  Level Indianapolis Center
12:49PM 39.3383 -87.4867 182° South 204 235 16,000  Level Indianapolis Center
12:50PM 39.2814 -87.4886 182° South 204 235 16,000  Level Indianapolis Center
12:51PM 39.2247 -87.4903 181° South 204 235 16,000 -240 Level Indianapolis Center
12:52PM 39.1553 -87.4931 182° South 207 238 15,600 -540 Descending Indianapolis Center
12:53PM 39.0997 -87.4944 181° South 218 251 15,000 -540 Descending Indianapolis Center
12:54PM 39.0253 -87.4969 181° South 222 255 14,500 -540 Descending Indianapolis Center
12:55PM 38.9636 -87.4978 181° South 220 253 14,000 -780 Descending Indianapolis Center
12:56PM 38.9006 -87.4994 181° South 225 259 13,000 -840 Descending Indianapolis Center
12:57PM 38.8333 -87.5014 181° South 236 272 12,300 -540 Descending Indianapolis Center
12:58PM 38.7708 -87.5047 182° South 229 264 11,900 -540 Descending Indianapolis Center
12:59PM 38.7097 -87.5072 182° South 222 255 11,300 -840 Descending Indianapolis Center
01:00PM 38.6456 -87.5083 181° South 227 261 10,200 -1,080 Descending Indianapolis Center
01:01PM 38.5719 -87.4808 164° South 233 268 9,100 -1,380 Descending Indianapolis Center
01:02PM 38.5128 -87.4444 154° Southeast 234 269 7,400 -1,440 Descending Indianapolis Center
01:03PM 38.4528 -87.4100 156° South 236 272 6,200 -1,140 Descending Indianapolis Center
01:04PM 38.3967 -87.3761 155° Southeast 231 266 5,100 -1,080 Descending Indianapolis Center
01:05PM 38.3392 -87.3531 163° South 225 259 4,000 -840 Descending Indianapolis Center
01:06PM 38.2806 -87.3503 178° South 217 250 3,400 -600 Descending Indianapolis Center
01:07PM 38.2125 -87.3581 185° South 209 241 2,800 -420 Descending Indianapolis Center
01:08PM 38.1658 -87.4008 216° Southwest 209 241 2,600 -180 Descending Indianapolis Center
01:09PM 38.1272 -87.4372 217° Southwest 189 217 2,500 -480 Descending Indianapolis Center
01:10PM 38.0986 -87.4669 219° Southwest 158 182 1,700 -660 Descending Indianapolis Center
01:11PM 38.0747 -87.4911 219° Southwest 131 151 1,200 -420 Descending Indianapolis Center
01:12PM 38.0522 -87.5131 218° Southwest 123 142 900 -300 Descending Indianapolis Center
01:14PM 38.0333 -87.5167 209° Southwest  Level FlightAware Approximate
01:21PM 38.0384 -87.5309 209° Southwest  Level Estimated
01:22PM 38.0384 -87.5309 209° Southwest  Level Estimated